Saturday, April 21, 2018, 9:06 PM EDT
Back to Local

KART, Watertown International Airport

Location: Dexter, NY, United States Lat: 43.983
Local Time: 9:06 PM EDT ( 1:06 GMT) Lon: -76.033
Time Zone: US/Eastern Elev: 324 ft

Show me the last for .
Show Decoded

2018-04-21 19:56 METAR KART 212356Z AUTO 22007KT 10SM CLR 06/M04 A3035 RMK AO2 SLP282 T00561039
                 10100 20056 53001 =
2018-04-21 18:56 METAR KART 212256Z AUTO 22009KT 10SM CLR 08/M04 A3035 RMK AO2 SLP281 T00781039 =
2018-04-21 17:56 METAR KART 212156Z AUTO 23008KT 10SM CLR 08/M03 A3035 RMK AO2 SLP281 T00831033 =
2018-04-21 16:56 METAR KART 212056Z AUTO 25010KT 10SM CLR 08/M01 A3035 RMK AO2 SLP282 T00831011
                 56009 =
2018-04-21 15:56 METAR KART 211956Z AUTO 26010KT 10SM CLR 09/M01 A3036 RMK AO2 SLP283 T00941011 =
2018-04-21 14:56 METAR KART 211856Z AUTO 25010KT 10SM CLR 09/M01 A3036 RMK AO2 SLP285 T00941011 =
2018-04-21 13:56 METAR KART 211756Z AUTO 27009KT 10SM CLR 09/01 A3038 RMK AO2 SLP290 T00940006
                 10094 20017 57019 =
2018-04-21 12:56 METAR KART 211656Z AUTO 27010KT 10SM CLR 09/01 A3039 RMK AO2 SLP296 T00890011 =
2018-04-21 11:56 METAR KART 211556Z AUTO 27009KT 10SM CLR 09/M03 A3042 RMK AO2 SLP304 T00891028 =
2018-04-21 10:56 METAR KART 211456Z AUTO 25007KT 10SM CLR 07/M01 A3043 RMK AO2 SLP309 T00721011
                 50009 =
2018-04-21 09:56 METAR KART 211356Z AUTO 24006KT 10SM CLR 06/M01 A3044 RMK AO2 SLP310 T00611011 =
2018-04-21 08:56 METAR KART 211256Z AUTO 23004KT 10SM CLR 04/M01 A3043 RMK AO2 SLP309 T00391006 =
2018-04-21 07:56 METAR KART 211156Z AUTO 00000KT 10SM CLR 01/00 A3041 RMK AO2 SLP301 I6001
                 T00110000 10011 21056 53006 =
2018-04-21 06:56 METAR KART 211056Z AUTO 19003KT 10SM CLR M02/M02 A3040 RMK AO2 SLP299 T10221022
                 =
2018-04-21 05:56 METAR KART 210956Z AUTO 00000KT 9SM CLR M06/M06 A3039 RMK AO2 SLP297 I1001
                 T10561061 =
2018-04-21 04:56 METAR KART 210856Z AUTO 00000KT 10SM CLR M03/M04 A3039 RMK AO2 SLP294 T10331039
                 53008 =
2018-04-21 03:56 METAR KART 210756Z AUTO 15003KT 10SM CLR M02/M02 A3038 RMK AO2 SLP290 T10221022
                 =
2018-04-21 02:56 METAR KART 210656Z AUTO 16004KT 10SM CLR M01/M02 A3037 RMK AO2 SLP289 T10111022
                 =
2018-04-21 01:56 METAR KART 210556Z AUTO 18003KT 10SM CLR M01/M02 A3036 RMK AO2 SLP286 T10061017
                 10028 21006 53003 =
2018-04-21 00:56 METAR KART 210456Z AUTO 18004KT 10SM CLR 00/M02 A3036 RMK AO2 SLP284 T00001017
                 400561028 =
2018-04-20 23:56 METAR KART 210356Z AUTO 18004KT 10SM CLR 01/M01 A3035 RMK AO2 SLP283 T00061011 =
2018-04-20 22:56 METAR KART 210256Z AUTO 17004KT 10SM CLR 01/M01 A3035 RMK AO2 SLP283 T00061011
                 50005 =
2018-04-20 21:56 METAR KART 210156Z AUTO 18004KT 10SM CLR 01/M01 A3035 RMK AO2 SLP283 T00111011 =

Support USWX by starting your Amazon purchase here.